sensor_id;sensor_type;location;lat;lon;timestamp;pressure;altitude;pressure_sealevel;temperature;humidity
58082;BME280;43876;55.576;38.242;2022-07-06T00:00:07;99846.06;;;19.18;78.48
58082;BME280;43876;55.576;38.242;2022-07-06T00:02:34;99853.16;;;19.18;78.80
58082;BME280;43876;55.576;38.242;2022-07-06T00:05:01;99848.00;;;19.13;78.59
58082;BME280;43876;55.576;38.242;2022-07-06T00:07:29;99855.91;;;19.15;78.86
58082;BME280;43876;55.576;38.242;2022-07-06T00:09:56;99854.22;;;19.12;79.08
58082;BME280;43876;55.576;38.242;2022-07-06T00:12:25;99857.59;;;19.17;79.16
58082;BME280;43876;55.576;38.242;2022-07-06T00:14:52;99863.84;;;19.15;78.96
58082;BME280;43876;55.576;38.242;2022-07-06T00:17:19;99847.22;;;19.10;79.17
58082;BME280;43876;55.576;38.242;2022-07-06T00:19:46;99819.47;;;18.95;79.59
58082;BME280;43876;55.576;38.242;2022-07-06T00:22:13;99852.47;;;19.11;79.09
58082;BME280;43876;55.576;38.242;2022-07-06T00:24:40;99845.47;;;19.10;79.10
58082;BME280;43876;55.576;38.242;2022-07-06T00:27:07;99837.56;;;19.09;79.19
58082;BME280;43876;55.576;38.242;2022-07-06T00:29:34;99843.63;;;19.12;78.85
58082;BME280;43876;55.576;38.242;2022-07-06T00:32:01;99838.41;;;19.09;78.56
58082;BME280;43876;55.576;38.242;2022-07-06T00:34:28;99834.88;;;19.10;78.88
58082;BME280;43876;55.576;38.242;2022-07-06T00:36:56;99803.47;;;18.99;78.70
58082;BME280;43876;55.576;38.242;2022-07-06T00:39:23;99831.25;;;19.13;78.44
58082;BME280;43876;55.576;38.242;2022-07-06T00:41:56;99829.50;;;19.12;78.45
58082;BME280;43876;55.576;38.242;2022-07-06T00:44:23;99815.75;;;19.00;78.32
58082;BME280;43876;55.576;38.242;2022-07-06T00:46:51;99827.75;;;19.12;78.53
58082;BME280;43876;55.576;38.242;2022-07-06T00:49:18;99834.75;;;19.13;78.32
58082;BME280;43876;55.576;38.242;2022-07-06T00:52:04;99843.56;;;19.14;78.33
58082;BME280;43876;55.576;38.242;2022-07-06T00:54:32;99841.13;;;19.08;78.16
58082;BME280;43876;55.576;38.242;2022-07-06T00:56:59;99839.19;;;19.13;78.34
58082;BME280;43876;55.576;38.242;2022-07-06T00:59:27;99835.59;;;19.15;78.09
58082;BME280;43876;55.576;38.242;2022-07-06T01:01:55;99818.44;;;18.99;78.30
58082;BME280;43876;55.576;38.242;2022-07-06T01:04:22;99844.53;;;19.11;78.28
58082;BME280;43876;55.576;38.242;2022-07-06T01:06:49;99834.56;;;19.19;78.04
58082;BME280;43876;55.576;38.242;2022-07-06T01:09:16;99845.13;;;19.21;77.98
58082;BME280;43876;55.576;38.242;2022-07-06T01:11:44;99846.66;;;19.28;77.81
58082;BME280;43876;55.576;38.242;2022-07-06T01:14:12;99842.88;;;19.35;77.57
58082;BME280;43876;55.576;38.242;2022-07-06T01:16:41;99847.94;;;19.43;77.23
58082;BME280;43876;55.576;38.242;2022-07-06T01:19:08;99848.59;;;19.50;77.12
58082;BME280;43876;55.576;38.242;2022-07-06T01:21:38;99836.00;;;19.56;76.38
58082;BME280;43876;55.576;38.242;2022-07-06T01:24:05;99848.09;;;19.63;76.02
58082;BME280;43876;55.576;38.242;2022-07-06T01:26:32;99819.25;;;19.56;75.56
58082;BME280;43876;55.576;38.242;2022-07-06T01:28:59;99825.72;;;19.74;74.76
58082;BME280;43876;55.576;38.242;2022-07-06T01:31:27;99843.72;;;19.89;74.85
58082;BME280;43876;55.576;38.242;2022-07-06T01:33:55;99835.38;;;20.00;74.55
58082;BME280;43876;55.576;38.242;2022-07-06T01:36:23;99832.63;;;20.03;73.90
58082;BME280;43876;55.576;38.242;2022-07-06T01:38:52;99842.69;;;20.18;73.53
58082;BME280;43876;55.576;38.242;2022-07-06T01:41:20;99841.47;;;20.27;73.55
58082;BME280;43876;55.576;38.242;2022-07-06T01:43:48;99834.84;;;20.39;72.94
58082;BME280;43876;55.576;38.242;2022-07-06T01:46:16;99829.38;;;20.43;72.62
58082;BME280;43876;55.576;38.242;2022-07-06T01:48:43;99842.25;;;20.54;72.39
58082;BME280;43876;55.576;38.242;2022-07-06T01:51:10;99838.66;;;20.55;72.30
58082;BME280;43876;55.576;38.242;2022-07-06T01:53:42;99837.34;;;20.67;72.03
58082;BME280;43876;55.576;38.242;2022-07-06T01:56:10;99820.31;;;20.73;71.61
58082;BME280;43876;55.576;38.242;2022-07-06T01:58:38;99840.03;;;20.89;71.31
58082;BME280;43876;55.576;38.242;2022-07-06T02:01:14;99843.44;;;20.93;70.89
58082;BME280;43876;55.576;38.242;2022-07-06T02:03:42;99844.06;;;20.99;70.74
58082;BME280;43876;55.576;38.242;2022-07-06T02:06:09;99843.75;;;21.29;70.01
58082;BME280;43876;55.576;38.242;2022-07-06T02:08:39;99846.03;;;22.01;67.51
58082;BME280;43876;55.576;38.242;2022-07-06T02:11:07;99828.59;;;22.73;64.84
58082;BME280;43876;55.576;38.242;2022-07-06T02:13:37;99819.09;;;23.94;60.59
58082;BME280;43876;55.576;38.242;2022-07-06T02:16:27;99843.72;;;25.60;56.37
58082;BME280;43876;55.576;38.242;2022-07-06T02:18:55;99837.19;;;26.82;52.87
58082;BME280;43876;55.576;38.242;2022-07-06T02:21:22;99845.69;;;27.70;50.22
58082;BME280;43876;55.576;38.242;2022-07-06T02:23:50;99831.13;;;28.64;47.65
58082;BME280;43876;55.576;38.242;2022-07-06T02:26:17;99827.97;;;29.07;46.35
58082;BME280;43876;55.576;38.242;2022-07-06T02:28:44;99839.59;;;29.79;44.68
58082;BME280;43876;55.576;38.242;2022-07-06T02:31:14;99836.16;;;29.53;44.71
58082;BME280;43876;55.576;38.242;2022-07-06T02:33:44;99830.06;;;28.28;47.25
58082;BME280;43876;55.576;38.242;2022-07-06T02:36:12;99838.13;;;28.15;47.71
58082;BME280;43876;55.576;38.242;2022-07-06T02:38:41;99833.00;;;29.59;44.67
58082;BME280;43876;55.576;38.242;2022-07-06T02:41:09;99850.69;;;29.75;43.96
58082;BME280;43876;55.576;38.242;2022-07-06T02:43:39;99837.69;;;29.09;45.49
58082;BME280;43876;55.576;38.242;2022-07-06T02:46:06;99825.38;;;29.18;44.98
58082;BME280;43876;55.576;38.242;2022-07-06T02:48:34;99828.41;;;30.31;42.60
58082;BME280;43876;55.576;38.242;2022-07-06T02:51:01;99833.28;;;31.37;40.05
58082;BME280;43876;55.576;38.242;2022-07-06T02:53:29;99837.03;;;31.78;39.19
58082;BME280;43876;55.576;38.242;2022-07-06T02:55:56;99842.88;;;31.62;39.49
58082;BME280;43876;55.576;38.242;2022-07-06T02:58:23;99844.22;;;32.61;38.11
58082;BME280;43876;55.576;38.242;2022-07-06T03:00:52;99849.75;;;34.64;34.10
58082;BME280;43876;55.576;38.242;2022-07-06T03:03:19;99851.38;;;36.37;31.60
58082;BME280;43876;55.576;38.242;2022-07-06T03:05:46;99847.03;;;37.62;29.38
58082;BME280;43876;55.576;38.242;2022-07-06T03:08:17;99849.75;;;38.11;28.60
58082;BME280;43876;55.576;38.242;2022-07-06T03:10:45;99848.16;;;38.49;28.11
58082;BME280;43876;55.576;38.242;2022-07-06T03:13:12;99864.44;;;39.05;26.78
58082;BME280;43876;55.576;38.242;2022-07-06T03:15:40;99845.41;;;38.49;27.79
58082;BME280;43876;55.576;38.242;2022-07-06T03:18:08;99850.28;;;37.74;28.24
58082;BME280;43876;55.576;38.242;2022-07-06T03:20:36;99837.25;;;36.07;30.69
58082;BME280;43876;55.576;38.242;2022-07-06T03:23:06;99807.63;;;33.76;34.38
58082;BME280;43876;55.576;38.242;2022-07-06T03:25:34;99834.78;;;32.25;37.43
58082;BME280;43876;55.576;38.242;2022-07-06T03:28:01;99811.69;;;32.42;37.08
58082;BME280;43876;55.576;38.242;2022-07-06T03:30:28;99832.81;;;33.96;34.59
58082;BME280;43876;55.576;38.242;2022-07-06T03:32:56;99836.69;;;35.77;31.57
58082;BME280;43876;55.576;38.242;2022-07-06T03:35:26;99841.44;;;37.72;28.97
58082;BME280;43876;55.576;38.242;2022-07-06T03:37:54;99830.53;;;39.23;26.63
58082;BME280;43876;55.576;38.242;2022-07-06T03:40:24;99832.19;;;40.31;25.29
58082;BME280;43876;55.576;38.242;2022-07-06T03:42:51;99826.78;;;41.40;23.92
58082;BME280;43876;55.576;38.242;2022-07-06T03:45:20;99825.66;;;41.99;23.07
58082;BME280;43876;55.576;38.242;2022-07-06T03:47:48;99810.44;;;41.75;23.41
58082;BME280;43876;55.576;38.242;2022-07-06T03:50:15;99820.78;;;42.01;23.26
58082;BME280;43876;55.576;38.242;2022-07-06T03:52:42;99814.41;;;42.64;22.36
58082;BME280;43876;55.576;38.242;2022-07-06T03:55:11;99824.13;;;43.34;21.68
58082;BME280;43876;55.576;38.242;2022-07-06T03:57:46;99816.78;;;43.95;20.72
58082;BME280;43876;55.576;38.242;2022-07-06T04:00:17;99814.84;;;44.15;20.35
58082;BME280;43876;55.576;38.242;2022-07-06T04:02:52;99810.75;;;44.31;20.43
58082;BME280;43876;55.576;38.242;2022-07-06T04:05:23;99835.94;;;44.48;20.13
58082;BME280;43876;55.576;38.242;2022-07-06T04:07:52;99829.47;;;44.74;19.70
58082;BME280;43876;55.576;38.242;2022-07-06T04:10:24;99816.75;;;45.18;19.42
58082;BME280;43876;55.576;38.242;2022-07-06T04:12:54;99817.69;;;45.06;19.65
58082;BME280;43876;55.576;38.242;2022-07-06T04:15:21;99824.81;;;44.75;19.72
58082;BME280;43876;55.576;38.242;2022-07-06T04:17:48;99816.78;;;44.08;20.56
58082;BME280;43876;55.576;38.242;2022-07-06T04:20:24;99817.94;;;43.06;21.22
58082;BME280;43876;55.576;38.242;2022-07-06T04:22:53;99824.13;;;40.59;24.21
58082;BME280;43876;55.576;38.242;2022-07-06T04:25:22;99826.41;;;38.08;27.58
58082;BME280;43876;55.576;38.242;2022-07-06T04:27:50;99828.19;;;36.24;30.40
58082;BME280;43876;55.576;38.242;2022-07-06T04:30:17;99827.44;;;34.98;32.37
58082;BME280;43876;55.576;38.242;2022-07-06T04:32:44;99825.25;;;34.19;34.01
58082;BME280;43876;55.576;38.242;2022-07-06T04:35:12;99829.88;;;33.31;35.95
58082;BME280;43876;55.576;38.242;2022-07-06T04:37:41;99818.47;;;33.17;36.11
58082;BME280;43876;55.576;38.242;2022-07-06T04:40:09;99822.22;;;32.95;36.70
58082;BME280;43876;55.576;38.242;2022-07-06T04:42:44;99819.19;;;32.59;37.38
58082;BME280;43876;55.576;38.242;2022-07-06T04:45:12;99826.06;;;32.42;37.65
58082;BME280;43876;55.576;38.242;2022-07-06T04:47:39;99821.09;;;32.17;38.88
58082;BME280;43876;55.576;38.242;2022-07-06T04:50:07;99824.53;;;31.98;39.15
58082;BME280;43876;55.576;38.242;2022-07-06T04:52:34;99814.06;;;31.62;40.14
58082;BME280;43876;55.576;38.242;2022-07-06T04:55:02;99827.06;;;31.25;40.81
58082;BME280;43876;55.576;38.242;2022-07-06T04:57:33;99800.09;;;30.70;41.20
58082;BME280;43876;55.576;38.242;2022-07-06T05:00:03;99823.41;;;30.60;42.04
58082;BME280;43876;55.576;38.242;2022-07-06T05:02:31;99830.25;;;30.64;42.54
58082;BME280;43876;55.576;38.242;2022-07-06T05:04:58;99834.66;;;30.65;42.81
58082;BME280;43876;55.576;38.242;2022-07-06T05:07:25;99829.25;;;30.65;42.61
58082;BME280;43876;55.576;38.242;2022-07-06T05:09:56;99831.22;;;30.74;42.53
58082;BME280;43876;55.576;38.242;2022-07-06T05:12:25;99814.47;;;30.59;42.63
58082;BME280;43876;55.576;38.242;2022-07-06T05:14:53;99817.03;;;30.38;43.54
58082;BME280;43876;55.576;38.242;2022-07-06T05:17:21;99813.25;;;30.30;44.15
58082;BME280;43876;55.576;38.242;2022-07-06T05:19:57;99790.81;;;30.18;43.90
58082;BME280;43876;55.576;38.242;2022-07-06T05:22:24;99812.47;;;30.16;44.36
58082;BME280;43876;55.576;38.242;2022-07-06T05:24:52;99812.84;;;30.12;44.23
58082;BME280;43876;55.576;38.242;2022-07-06T05:27:20;99790.31;;;30.01;44.30
58082;BME280;43876;55.576;38.242;2022-07-06T05:29:48;99809.31;;;30.23;44.87
58082;BME280;43876;55.576;38.242;2022-07-06T05:32:15;99801.59;;;30.18;44.33
58082;BME280;43876;55.576;38.242;2022-07-06T05:34:43;99804.38;;;30.28;44.21
58082;BME280;43876;55.576;38.242;2022-07-06T05:37:13;99785.69;;;30.37;43.92
58082;BME280;43876;55.576;38.242;2022-07-06T05:39:43;99795.34;;;30.51;44.16
58082;BME280;43876;55.576;38.242;2022-07-06T05:42:12;99809.91;;;30.60;44.51
58082;BME280;43876;55.576;38.242;2022-07-06T05:44:44;99809.81;;;30.61;43.66
58082;BME280;43876;55.576;38.242;2022-07-06T05:47:12;99802.69;;;30.49;43.72
58082;BME280;43876;55.576;38.242;2022-07-06T05:49:58;99804.44;;;30.50;43.46
58082;BME280;43876;55.576;38.242;2022-07-06T05:53:01;99797.56;;;30.57;43.19
58082;BME280;43876;55.576;38.242;2022-07-06T05:55:41;99802.53;;;30.73;43.00
58082;BME280;43876;55.576;38.242;2022-07-06T05:58:08;99812.09;;;30.77;42.58
58082;BME280;43876;55.576;38.242;2022-07-06T06:00:37;99814.94;;;30.65;43.02
58082;BME280;43876;55.576;38.242;2022-07-06T06:03:10;99796.47;;;30.49;43.48
58082;BME280;43876;55.576;38.242;2022-07-06T06:05:39;99814.69;;;30.68;42.71
58082;BME280;43876;55.576;38.242;2022-07-06T06:08:08;99804.28;;;30.74;42.49
58082;BME280;43876;55.576;38.242;2022-07-06T06:10:35;99818.84;;;30.83;43.22
58082;BME280;43876;55.576;38.242;2022-07-06T06:13:07;99806.94;;;30.86;42.77
58082;BME280;43876;55.576;38.242;2022-07-06T06:15:35;99805.34;;;30.83;42.52
58082;BME280;43876;55.576;38.242;2022-07-06T06:18:03;99786.75;;;30.69;43.19
58082;BME280;43876;55.576;38.242;2022-07-06T06:20:31;99806.47;;;30.92;42.87
58082;BME280;43876;55.576;38.242;2022-07-06T06:22:59;99799.84;;;30.96;42.79
58082;BME280;43876;55.576;38.242;2022-07-06T06:25:36;99803.38;;;30.96;42.53
58082;BME280;43876;55.576;38.242;2022-07-06T06:28:08;99803.25;;;30.98;42.41
58082;BME280;43876;55.576;38.242;2022-07-06T06:30:36;99796.91;;;30.76;42.65
58082;BME280;43876;55.576;38.242;2022-07-06T06:33:08;99801.00;;;30.48;43.85
58082;BME280;43876;55.576;38.242;2022-07-06T06:35:36;99791.66;;;30.52;43.95
58082;BME280;43876;55.576;38.242;2022-07-06T06:38:04;99804.75;;;30.79;43.50
58082;BME280;43876;55.576;38.242;2022-07-06T06:40:31;99802.31;;;30.88;42.50
58082;BME280;43876;55.576;38.242;2022-07-06T06:42:58;99795.81;;;30.68;41.82
58082;BME280;43876;55.576;38.242;2022-07-06T06:45:25;99791.78;;;30.62;42.09
58082;BME280;43876;55.576;38.242;2022-07-06T06:47:52;99802.06;;;30.68;42.05
58082;BME280;43876;55.576;38.242;2022-07-06T06:50:19;99786.63;;;30.70;42.23
58082;BME280;43876;55.576;38.242;2022-07-06T06:52:47;99779.84;;;30.76;42.39
58082;BME280;43876;55.576;38.242;2022-07-06T06:55:14;99782.56;;;30.76;42.31
58082;BME280;43876;55.576;38.242;2022-07-06T06:57:42;99800.19;;;30.80;43.16
58082;BME280;43876;55.576;38.242;2022-07-06T07:00:09;99794.09;;;30.67;43.39
58082;BME280;43876;55.576;38.242;2022-07-06T07:02:36;99789.06;;;30.73;43.54
58082;BME280;43876;55.576;38.242;2022-07-06T07:05:04;99785.50;;;30.73;42.95
58082;BME280;43876;55.576;38.242;2022-07-06T07:07:36;99792.41;;;30.66;43.02
58082;BME280;43876;55.576;38.242;2022-07-06T07:10:04;99802.88;;;30.80;42.99
58082;BME280;43876;55.576;38.242;2022-07-06T07:12:32;99784.41;;;30.75;42.50
58082;BME280;43876;55.576;38.242;2022-07-06T07:15:00;99791.53;;;30.76;42.68
58082;BME280;43876;55.576;38.242;2022-07-06T07:17:28;99795.94;;;30.66;42.42
58082;BME280;43876;55.576;38.242;2022-07-06T07:19:55;99764.00;;;30.50;42.17
58082;BME280;43876;55.576;38.242;2022-07-06T07:22:24;99790.06;;;30.50;42.81
58082;BME280;43876;55.576;38.242;2022-07-06T07:24:51;99778.09;;;30.42;42.65
58082;BME280;43876;55.576;38.242;2022-07-06T07:27:18;99760.56;;;30.37;42.95
58082;BME280;43876;55.576;38.242;2022-07-06T07:29:45;99785.53;;;30.61;42.60
58082;BME280;43876;55.576;38.242;2022-07-06T07:32:12;99779.31;;;30.61;41.93
58082;BME280;43876;55.576;38.242;2022-07-06T07:34:39;99781.00;;;30.62;40.37
58082;BME280;43876;55.576;38.242;2022-07-06T07:37:06;99765.59;;;30.41;40.21
58082;BME280;43876;55.576;38.242;2022-07-06T07:39:33;99763.91;;;30.29;40.25
58082;BME280;43876;55.576;38.242;2022-07-06T07:42:00;99787.16;;;30.53;40.96
58082;BME280;43876;55.576;38.242;2022-07-06T07:44:28;99786.16;;;30.54;41.54
58082;BME280;43876;55.576;38.242;2022-07-06T07:46:55;99790.03;;;30.83;41.78
58082;BME280;43876;55.576;38.242;2022-07-06T07:49:22;99766.34;;;30.98;41.80
58082;BME280;43876;55.576;38.242;2022-07-06T07:51:49;99790.75;;;30.97;40.51
58082;BME280;43876;55.576;38.242;2022-07-06T07:54:16;99790.53;;;30.89;40.50
58082;BME280;43876;55.576;38.242;2022-07-06T07:56:44;99785.00;;;30.79;40.76
58082;BME280;43876;55.576;38.242;2022-07-06T07:59:11;99792.00;;;30.81;40.02
58082;BME280;43876;55.576;38.242;2022-07-06T08:01:40;99785.47;;;30.95;39.65
58082;BME280;43876;55.576;38.242;2022-07-06T08:04:07;99790.53;;;31.21;39.49
58082;BME280;43876;55.576;38.242;2022-07-06T08:06:34;99785.03;;;31.22;39.88
58082;BME280;43876;55.576;38.242;2022-07-06T08:09:01;99791.25;;;31.02;40.16
58082;BME280;43876;55.576;38.242;2022-07-06T08:11:30;99789.56;;;30.90;40.45
58082;BME280;43876;55.576;38.242;2022-07-06T08:13:57;99794.94;;;30.90;41.16
58082;BME280;43876;55.576;38.242;2022-07-06T08:16:24;99778.94;;;31.09;40.59
58082;BME280;43876;55.576;38.242;2022-07-06T08:18:52;99780.66;;;31.10;40.80
58082;BME280;43876;55.576;38.242;2022-07-06T08:21:19;99790.88;;;30.84;41.09
58082;BME280;43876;55.576;38.242;2022-07-06T08:23:52;99781.25;;;30.59;41.37
58082;BME280;43876;55.576;38.242;2022-07-06T08:26:19;99794.13;;;30.33;41.97
58082;BME280;43876;55.576;38.242;2022-07-06T08:28:46;99772.72;;;30.31;41.43
58082;BME280;43876;55.576;38.242;2022-07-06T08:31:13;99776.59;;;30.50;41.92
58082;BME280;43876;55.576;38.242;2022-07-06T08:34:01;99787.38;;;30.72;41.82
58082;BME280;43876;55.576;38.242;2022-07-06T08:36:28;99779.88;;;30.65;41.22
58082;BME280;43876;55.576;38.242;2022-07-06T08:38:56;99771.50;;;30.35;42.19
58082;BME280;43876;55.576;38.242;2022-07-06T08:41:25;99788.25;;;30.05;42.79
58082;BME280;43876;55.576;38.242;2022-07-06T08:43:53;99750.16;;;30.21;43.17
58082;BME280;43876;55.576;38.242;2022-07-06T08:46:21;99759.38;;;30.30;42.36
58082;BME280;43876;55.576;38.242;2022-07-06T08:48:49;99782.47;;;30.66;41.98
58082;BME280;43876;55.576;38.242;2022-07-06T08:51:19;99777.66;;;30.92;41.07
58082;BME280;43876;55.576;38.242;2022-07-06T08:53:56;99778.78;;;30.90;41.42
58082;BME280;43876;55.576;38.242;2022-07-06T08:56:24;99775.22;;;30.67;41.99
58082;BME280;43876;55.576;38.242;2022-07-06T08:58:55;99762.50;;;30.57;41.21
58082;BME280;43876;55.576;38.242;2022-07-06T09:01:22;99765.44;;;30.66;41.18
58082;BME280;43876;55.576;38.242;2022-07-06T09:03:50;99756.28;;;30.57;41.41
58082;BME280;43876;55.576;38.242;2022-07-06T09:06:23;99765.28;;;30.78;41.10
58082;BME280;43876;55.576;38.242;2022-07-06T09:08:56;99764.06;;;30.71;41.45
58082;BME280;43876;55.576;38.242;2022-07-06T09:11:24;99773.38;;;30.90;41.63
58082;BME280;43876;55.576;38.242;2022-07-06T09:13:55;99761.00;;;30.87;42.20
58082;BME280;43876;55.576;38.242;2022-07-06T09:16:27;99756.81;;;30.94;42.30
58082;BME280;43876;55.576;38.242;2022-07-06T09:19:06;99763.50;;;31.11;42.41
58082;BME280;43876;55.576;38.242;2022-07-06T09:21:34;99776.03;;;31.33;41.52
58082;BME280;43876;55.576;38.242;2022-07-06T09:24:12;99756.38;;;31.63;40.99
58082;BME280;43876;55.576;38.242;2022-07-06T09:26:40;99758.91;;;32.07;40.33
58082;BME280;43876;55.576;38.242;2022-07-06T09:29:08;99750.50;;;32.31;39.18
58082;BME280;43876;55.576;38.242;2022-07-06T09:31:35;99747.91;;;32.30;39.56
58082;BME280;43876;55.576;38.242;2022-07-06T09:34:05;99756.38;;;32.15;39.41
58082;BME280;43876;55.576;38.242;2022-07-06T09:36:48;99728.16;;;31.98;39.41
58082;BME280;43876;55.576;38.242;2022-07-06T09:39:21;99746.78;;;32.32;38.80
58082;BME280;43876;55.576;38.242;2022-07-06T09:41:51;99743.91;;;32.24;38.92
58082;BME280;43876;55.576;38.242;2022-07-06T09:46:55;99742.63;;;32.28;38.27
58082;BME280;43876;55.576;38.242;2022-07-06T09:49:24;99749.91;;;32.28;38.77
58082;BME280;43876;55.576;38.242;2022-07-06T09:51:53;99736.00;;;32.42;38.42
58082;BME280;43876;55.576;38.242;2022-07-06T09:54:22;99734.66;;;32.57;38.14
58082;BME280;43876;55.576;38.242;2022-07-06T09:56:50;99718.31;;;32.78;37.72
58082;BME280;43876;55.576;38.242;2022-07-06T09:59:22;99733.50;;;32.70;36.83
58082;BME280;43876;55.576;38.242;2022-07-06T10:01:54;99737.53;;;32.35;37.32
58082;BME280;43876;55.576;38.242;2022-07-06T10:04:24;99724.69;;;32.17;37.66
58082;BME280;43876;55.576;38.242;2022-07-06T10:06:52;99734.06;;;32.13;37.81
58082;BME280;43876;55.576;38.242;2022-07-06T10:09:21;99729.75;;;32.01;38.17
58082;BME280;43876;55.576;38.242;2022-07-06T10:11:52;99731.22;;;32.15;38.19
58082;BME280;43876;55.576;38.242;2022-07-06T10:14:22;99728.53;;;32.15;38.05
58082;BME280;43876;55.576;38.242;2022-07-06T10:16:50;99717.13;;;32.11;38.49
58082;BME280;43876;55.576;38.242;2022-07-06T10:19:20;99723.47;;;32.00;38.10
58082;BME280;43876;55.576;38.242;2022-07-06T10:21:48;99718.44;;;31.86;38.57
58082;BME280;43876;55.576;38.242;2022-07-06T10:24:15;99705.91;;;31.85;38.66
58082;BME280;43876;55.576;38.242;2022-07-06T10:26:48;99708.72;;;31.83;39.03
58082;BME280;43876;55.576;38.242;2022-07-06T10:29:18;99699.75;;;31.73;39.08
58082;BME280;43876;55.576;38.242;2022-07-06T10:31:49;99703.81;;;31.68;38.76
58082;BME280;43876;55.576;38.242;2022-07-06T10:34:19;99701.47;;;31.53;39.38
58082;BME280;43876;55.576;38.242;2022-07-06T10:36:52;99713.50;;;31.28;39.55
58082;BME280;43876;55.576;38.242;2022-07-06T10:39:36;99708.50;;;31.23;40.00
58082;BME280;43876;55.576;38.242;2022-07-06T10:42:46;99709.94;;;31.28;39.49
58082;BME280;43876;55.576;38.242;2022-07-06T10:53:16;99704.81;;;31.25;39.95
58082;BME280;43876;55.576;38.242;2022-07-06T10:55:46;99696.38;;;31.18;40.09
58082;BME280;43876;55.576;38.242;2022-07-06T10:58:14;99700.94;;;31.17;40.45
58082;BME280;43876;55.576;38.242;2022-07-06T11:00:48;99696.84;;;31.02;40.78
58082;BME280;43876;55.576;38.242;2022-07-06T11:08:50;99696.88;;;31.44;40.29
58082;BME280;43876;55.576;38.242;2022-07-06T11:11:22;99681.53;;;31.45;40.29
58082;BME280;43876;55.576;38.242;2022-07-06T11:13:54;99698.25;;;31.17;40.71
58082;BME280;43876;55.576;38.242;2022-07-06T11:19:10;99692.34;;;30.80;41.50
58082;BME280;43876;55.576;38.242;2022-07-06T11:21:40;99686.00;;;30.81;41.97
58082;BME280;43876;55.576;38.242;2022-07-06T11:24:11;99681.84;;;30.77;41.50
58082;BME280;43876;55.576;38.242;2022-07-06T11:26:39;99693.44;;;30.89;41.80
58082;BME280;43876;55.576;38.242;2022-07-06T11:29:08;99699.84;;;30.88;41.90
58082;BME280;43876;55.576;38.242;2022-07-06T11:31:36;99696.50;;;30.52;42.44
58082;BME280;43876;55.576;38.242;2022-07-06T11:34:05;99690.88;;;30.55;43.17
58082;BME280;43876;55.576;38.242;2022-07-06T11:36:34;99684.34;;;30.57;46.30
58082;BME280;43876;55.576;38.242;2022-07-06T11:39:09;99683.78;;;30.20;46.92
58082;BME280;43876;55.576;38.242;2022-07-06T11:41:36;99678.06;;;29.91;48.39
58082;BME280;43876;55.576;38.242;2022-07-06T11:44:06;99665.03;;;29.39;50.89
58082;BME280;43876;55.576;38.242;2022-07-06T11:46:34;99684.69;;;29.17;50.11
58082;BME280;43876;55.576;38.242;2022-07-06T11:49:08;99691.34;;;28.76;48.15
58082;BME280;43876;55.576;38.242;2022-07-06T11:51:53;99690.47;;;28.39;50.32
58082;BME280;43876;55.576;38.242;2022-07-06T11:54:22;99711.19;;;27.62;55.28
58082;BME280;43876;55.576;38.242;2022-07-06T11:56:51;99705.03;;;27.21;59.39
58082;BME280;43876;55.576;38.242;2022-07-06T11:59:23;99695.97;;;27.24;55.86
58082;BME280;43876;55.576;38.242;2022-07-06T14:54:07;99617.50;;;27.71;48.53
58082;BME280;43876;55.576;38.242;2022-07-06T14:56:36;99613.47;;;27.40;49.21
58082;BME280;43876;55.576;38.242;2022-07-06T14:59:03;99625.38;;;27.36;50.12
58082;BME280;43876;55.576;38.242;2022-07-06T15:01:50;99619.06;;;27.24;50.08
58082;BME280;43876;55.576;38.242;2022-07-06T15:04:17;99621.19;;;27.19;50.30
58082;BME280;43876;55.576;38.242;2022-07-06T15:06:45;99614.19;;;27.16;50.55
58082;BME280;43876;55.576;38.242;2022-07-06T15:09:23;99613.31;;;27.16;50.72
58082;BME280;43876;55.576;38.242;2022-07-06T15:11:50;99614.94;;;27.18;50.54
58082;BME280;43876;55.576;38.242;2022-07-06T15:14:18;99611.00;;;27.24;50.73
58082;BME280;43876;55.576;38.242;2022-07-06T15:16:45;99584.50;;;27.20;50.94
58082;BME280;43876;55.576;38.242;2022-07-06T15:19:12;99599.75;;;27.32;50.95
58082;BME280;43876;55.576;38.242;2022-07-06T15:21:39;99609.59;;;27.44;51.00
58082;BME280;43876;55.576;38.242;2022-07-06T15:24:07;99601.22;;;27.49;50.31
58082;BME280;43876;55.576;38.242;2022-07-06T15:26:34;99579.47;;;27.41;50.27
58082;BME280;43876;55.576;38.242;2022-07-06T15:29:01;99588.16;;;27.44;50.30
58082;BME280;43876;55.576;38.242;2022-07-06T15:31:28;99599.41;;;27.62;50.53
58082;BME280;43876;55.576;38.242;2022-07-06T15:33:56;99583.31;;;27.62;49.61
58082;BME280;43876;55.576;38.242;2022-07-06T15:36:23;99587.03;;;27.72;49.53
58082;BME280;43876;55.576;38.242;2022-07-06T15:38:50;99591.75;;;27.82;49.87
58082;BME280;43876;55.576;38.242;2022-07-06T15:41:18;99568.66;;;27.79;50.21
58082;BME280;43876;55.576;38.242;2022-07-06T15:43:45;99579.72;;;27.87;49.87
58082;BME280;43876;55.576;38.242;2022-07-06T15:46:20;99581.75;;;27.96;49.67
58082;BME280;43876;55.576;38.242;2022-07-06T15:48:48;99582.25;;;28.02;49.37
58082;BME280;43876;55.576;38.242;2022-07-06T15:51:15;99588.13;;;28.07;49.76
58082;BME280;43876;55.576;38.242;2022-07-06T15:53:42;99574.31;;;28.00;50.15
58082;BME280;43876;55.576;38.242;2022-07-06T15:56:12;99588.81;;;27.97;49.63
58082;BME280;43876;55.576;38.242;2022-07-06T15:58:40;99585.97;;;27.88;50.02
58082;BME280;43876;55.576;38.242;2022-07-06T16:01:10;99578.66;;;27.77;50.32
58082;BME280;43876;55.576;38.242;2022-07-06T16:03:37;99566.66;;;27.70;50.06
58082;BME280;43876;55.576;38.242;2022-07-06T16:06:06;99583.06;;;27.65;50.40
58082;BME280;43876;55.576;38.242;2022-07-06T16:08:39;99581.25;;;27.66;50.46
58082;BME280;43876;55.576;38.242;2022-07-06T16:11:13;99583.94;;;27.66;50.60